Relevés horaires Bierset (Belgique)


Relevés horaires à Bierset - Mercredi 21 Juin 2023
Heure UTC1 Température [°C] Vent [km/h] Hum. [%] Pres.4 [hPa] Visi. [Km] Nébu. [octa] Préc.5 [mm] Cond.
2m. Res. Ros. Dir.2 Vit. Moy. Raf.3
23:00 19.5 19.5 13.3 NNE 7.4 7.4 9.3 67 1018.7(0.6/3h) 20 7/8 -- --
22:00 20.8 20.8 13.4 N 1.9 3.7 5.6 63 1018.8(1.1/3h) 20 7/8 -- --
21:00 21.4 21.4 13.6 NNO 1.9 5.6 7.4 61 1019(0.8/3h) 20 7/8 -- --
20:00 21.6 21.6 13.4 N 3.7 3.7 7.4 60 1018(-0.2/3h) 20 7/8 -- --
19:00 22.6 22.6 13.3 N 3.7 5.6 7.4 56 1017.5(-0.7/3h) 20 7/8 -- --
18:00 23.8 23.8 13.9 NO 5.6 7.4 14.8 54 1018(0.0/3h) 20 7/8 0/12h
--
17:00 25.3 25.3 14.0 NO 5.6 7.4 11.1 50 1017.9(0.1/3h) 20 7/8 -- --
16:00 25.5 25.5 14.2 NNO 3.7 7.4 11.1 50 1018(0.2/3h) 20 5/8 -- --
15:00 25.5 25.5 14.6 NO 7.4 7.4 14.8 51 1017.9(0.2/3h) 20 6/8 -- --
14:00 25.5 25.5 14.6 ONO 7.4 7.4 13.0 51 1017.8(0.4/3h) 20 6/8 -- --
13:00 24.8 24.8 14.9 ONO 7.4 7.4 14.8 54 1017.8(0.6/3h) 20 6/8 -- --
12:00 23.8 23.8 14.9 NO 5.6 9.3 13.0 57 1017.8(0.9/3h) 20 5/8 0/6h
--
11:00 23.6 23.6 15.6 ONO 7.4 7.4 13.0 61 1017.6(0.7/3h) 20 6/8 -- --
10:00 22.7 22.7 16.6 O 7.4 7.4 11.1 68 1017.3(0.9/3h) 20 6/8 -- --
09:00 21.6 21.6 16.3 O 7.4 9.3 13.0 72 1017.1(1.2/3h) 20 6/8 -- --
08:00 20.3 20.3 16.8 OSO 7.4 9.3 13.0 80 1017.1(1.6/3h) 20 7/8 -- --
07:00 19.9 19.9 16.8 SO 9.3 9.3 11.1 82 1016.6(1.7/3h) 14 7/8 -- --
06:00 19.7 19.7 16.7 SO 9.3 9.3 18.5 83 1015.9(1.3/3h) 14 4/8 0/12h
--
05:00 18.0 18.0 16.1 SSO 7.4 7.4 16.7 89 1015.6(1.5/3h) 12 5/8 -- --
04:00 17.7 17.7 16.0 S 5.6 7.4 11.1 90 1015(1.4/3h) 12 4/8 -- --
03:00 17.8 17.8 16.0 S 5.6 7.4 18.5 89 1014.7(1.2/3h) 20 6/8 -- --
02:00 17.8 17.8 16.1 S 7.4 7.4 18.5 90 1014.2(0.7/3h) 20 3/8 -- --
01:00 18.0 18.0 15.9 S 7.4 7.4 13.0 88 1013.6(0.0/3h) 35 3/8 -- --
00:00 18.1 18.1 15.7 SSE 7.4 14.8 20.4 86 1013.5(0.2/3h) 35 3/8 0/6h
0.3/24h
Nuages se dissipant

1 Coordinated Universal Time. Actuellement il est 23:00 locale et 21:00 UTC.

2 Le vent souffle depuis la direction indiquée vers la direction oposée.

3 Les rafales max. sont disponible 40 min après l'heure du relevé.

4 Pour les stations d'altitude (plus de 600m) le géopotentiel du niveau le plus proche de la pression obligatoire est indiqué.

5 Les stations disposant d'un diffuseur peuvent indiquer "trace". Cela signifie que des précipitations ont touchés le sol mais que la quantité est inférieure à 0.1 mm.

Récapitulatif de la journée
Température [°C] Vent [km/h] Ensoleillement4 [h] Precipitations totale5 [mm] Pression [Hpa]
Min1 Max.2 Moy.3 Max. Min Max.
17.4 26.3 7.6 20.4 0 h 0 min 0 1013.5 1019.0

1 Température minimale relevée entre 18:00 UTC la veille et 18:00 UTC le jour donné.

2 Température maximale relevée entre 06:00 UTC le jour donné et 06:00 UTC le lendemain.

3 Vent moyen de la journée basé sur les relevés horaires.

4 Ensoleillement en heures relevé entre 06:00 UTC la veille et 06:00 UTC le jour donné.

5 Précipitations totales tombées entre 06:00 UTC la jour donné et 06:00 UTC le lendemain.

Graphiques horaires